createdAt,value
2016-09-16T00:00:46.750Z,994.68
2016-09-16T00:01:56.732Z,994.67
2016-09-16T00:03:06.724Z,994.69
2016-09-16T00:04:17.017Z,994.65
2016-09-16T00:05:27.000Z,994.71
2016-09-16T00:06:37.324Z,994.71
2016-09-16T00:07:47.626Z,994.73
2016-09-16T00:08:57.928Z,994.73
2016-09-16T00:10:08.210Z,994.7
2016-09-16T00:11:18.506Z,994.69
2016-09-16T00:12:28.783Z,994.7
2016-09-16T00:13:38.761Z,994.67
2016-09-16T00:14:48.755Z,994.7
2016-09-16T00:15:59.063Z,994.73
2016-09-16T00:17:09.351Z,994.72
2016-09-16T00:18:19.331Z,994.72
2016-09-16T00:19:29.309Z,994.68
2016-09-16T00:20:39.601Z,994.69
2016-09-16T00:21:49.928Z,994.68
2016-09-16T00:22:59.897Z,994.68
2016-09-16T00:24:09.885Z,994.66
2016-09-16T00:25:19.878Z,994.7
2016-09-16T00:26:30.153Z,994.72
2016-09-16T00:27:40.446Z,994.72
2016-09-16T00:28:50.733Z,994.76
2016-09-16T00:30:01.025Z,994.78
2016-09-16T00:31:11.315Z,994.8
2016-09-16T00:32:21.309Z,994.78
2016-09-16T00:33:31.518Z,994.77
2016-09-16T00:34:41.815Z,994.77
2016-09-16T00:35:51.783Z,994.82
2016-09-16T00:37:01.763Z,994.78
2016-09-16T00:38:12.050Z,994.78
2016-09-16T00:39:22.337Z,994.77
2016-09-16T00:40:32.626Z,994.82
2016-09-16T00:41:42.602Z,994.83
2016-09-16T00:42:52.877Z,994.84
2016-09-16T00:44:03.172Z,994.82
2016-09-16T00:45:13.456Z,994.8
2016-09-16T00:46:23.748Z,994.8
2016-09-16T00:47:34.040Z,994.78
2016-09-16T00:48:44.347Z,994.79
2016-09-16T00:49:54.636Z,994.82
2016-09-16T00:51:04.614Z,994.8
2016-09-16T00:52:14.907Z,994.75
2016-09-16T00:53:25.197Z,994.77
2016-09-16T00:54:35.194Z,994.84
2016-09-16T00:55:45.491Z,994.83
2016-09-16T00:56:55.789Z,994.85
2016-09-16T00:58:05.769Z,994.86
2016-09-16T00:59:16.046Z,994.83
2016-09-16T01:00:26.018Z,994.81
2016-09-16T01:01:36.321Z,994.81
2016-09-16T01:02:46.606Z,994.82
2016-09-16T01:03:56.598Z,994.77
2016-09-16T01:05:06.939Z,994.77
2016-09-16T01:06:16.918Z,994.78
2016-09-16T01:07:27.213Z,994.74
2016-09-16T01:08:37.510Z,994.71
2016-09-16T01:09:47.508Z,994.71
2016-09-16T01:10:57.796Z,994.68
2016-09-16T01:12:08.089Z,994.68
2016-09-16T01:13:18.098Z,994.67
2016-09-16T01:14:28.383Z,994.71
2016-09-16T01:15:38.680Z,994.63
2016-09-16T01:16:48.967Z,994.63
2016-09-16T01:17:59.248Z,994.66
2016-09-16T01:19:09.235Z,994.67
2016-09-16T01:20:19.238Z,994.65
2016-09-16T01:21:29.534Z,994.67
2016-09-16T01:22:39.837Z,994.65
2016-09-16T01:23:49.817Z,994.62
2016-09-16T01:24:59.484Z,994.62
2016-09-16T01:26:09.466Z,994.61
2016-09-16T01:27:19.754Z,994.6
2016-09-16T01:28:28.800Z,994.63
2016-09-16T01:29:38.780Z,994.59
2016-09-16T01:30:49.082Z,994.6
2016-09-16T01:31:59.066Z,994.54
2016-09-16T01:33:09.359Z,994.57
2016-09-16T01:34:19.638Z,994.56
2016-09-16T01:35:29.931Z,994.57
2016-09-16T01:36:40.226Z,994.58
2016-09-16T01:37:50.525Z,994.62
2016-09-16T01:39:00.819Z,994.62
2016-09-16T01:40:10.801Z,994.63
2016-09-16T01:41:21.102Z,994.64
2016-09-16T01:42:31.388Z,994.62
2016-09-16T01:43:41.361Z,994.59
2016-09-16T01:44:51.648Z,994.57
2016-09-16T01:46:01.956Z,994.54
2016-09-16T01:47:11.926Z,994.53
2016-09-16T01:48:21.915Z,994.52
2016-09-16T01:49:32.213Z,994.48
2016-09-16T01:50:42.511Z,994.51
2016-09-16T01:51:52.792Z,994.47
2016-09-16T01:53:02.464Z,994.45
2016-09-16T01:54:12.750Z,994.42
2016-09-16T01:55:23.034Z,994.41
2016-09-16T01:56:33.310Z,994.44
2016-09-16T01:57:43.284Z,994.43
2016-09-16T01:58:53.274Z,994.41
2016-09-16T02:00:03.568Z,994.38
2016-09-16T02:01:13.860Z,994.38
2016-09-16T02:02:23.845Z,994.39
2016-09-16T02:03:33.813Z,994.34
2016-09-16T02:04:44.113Z,994.37
2016-09-16T02:05:54.474Z,994.36
2016-09-16T02:07:04.461Z,994.35
2016-09-16T02:08:14.436Z,994.37
2016-09-16T02:09:24.736Z,994.37
2016-09-16T02:10:34.710Z,994.37
2016-09-16T02:11:44.995Z,994.38
2016-09-16T02:12:55.305Z,994.42
2016-09-16T02:14:05.295Z,994.49
2016-09-16T02:15:15.299Z,994.51
2016-09-16T02:16:25.588Z,994.52
2016-09-16T02:17:35.574Z,994.58
2016-09-16T02:18:45.584Z,994.66
2016-09-16T02:19:55.558Z,994.64
2016-09-16T02:21:05.854Z,994.66
2016-09-16T02:22:16.139Z,994.68
2016-09-16T02:23:26.426Z,994.68
2016-09-16T02:24:36.718Z,994.69
2016-09-16T02:25:47.005Z,994.65
2016-09-16T02:26:57.308Z,994.66
2016-09-16T02:28:07.292Z,994.6
2016-09-16T02:29:17.266Z,994.55
2016-09-16T02:30:27.559Z,994.54
2016-09-16T02:31:37.914Z,994.5
2016-09-16T02:32:48.209Z,994.47
2016-09-16T02:33:58.500Z,994.45
2016-09-16T02:35:08.782Z,994.44
2016-09-16T02:36:18.766Z,994.45
2016-09-16T02:37:28.743Z,994.45
2016-09-16T02:38:39.017Z,994.48
2016-09-16T02:39:49.299Z,994.51
2016-09-16T02:40:59.592Z,994.5
2016-09-16T02:42:09.874Z,994.54
2016-09-16T02:43:20.163Z,994.53
2016-09-16T02:44:30.143Z,994.52
2016-09-16T02:45:40.112Z,994.5
2016-09-16T02:46:50.399Z,994.49
2016-09-16T02:48:00.076Z,994.48
2016-09-16T02:49:10.354Z,994.49
2016-09-16T02:50:20.638Z,994.52
2016-09-16T02:51:30.922Z,994.55
2016-09-16T02:52:40.902Z,994.51
2016-09-16T02:53:50.871Z,994.52
2016-09-16T02:55:01.156Z,994.52
2016-09-16T02:56:11.448Z,994.54
2016-09-16T02:57:21.729Z,994.54
2016-09-16T02:58:32.024Z,994.55
2016-09-16T02:59:42.309Z,994.58
2016-09-16T03:00:52.275Z,994.58
2016-09-16T03:32:25.212Z,994.66
2016-09-16T03:33:35.493Z,994.65
2016-09-16T03:34:45.465Z,994.69
2016-09-16T03:35:55.119Z,994.67
2016-09-16T03:37:05.422Z,994.7
2016-09-16T03:38:15.725Z,994.69
2016-09-16T03:39:26.016Z,994.7
2016-09-16T03:40:36.300Z,994.71
2016-09-16T03:41:46.278Z,994.73
2016-09-16T03:42:56.584Z,994.7
2016-09-16T03:44:06.580Z,994.68
2016-09-16T03:45:16.861Z,994.68
2016-09-16T03:46:26.854Z,994.69
2016-09-16T03:47:37.138Z,994.7
2016-09-16T03:48:47.441Z,994.64
2016-09-16T03:49:57.727Z,994.64
2016-09-16T03:51:07.702Z,994.61
2016-09-16T03:52:17.984Z,994.64
2016-09-16T03:53:27.963Z,994.64
2016-09-16T03:54:38.253Z,994.61
2016-09-16T03:55:48.530Z,994.64
2016-09-16T03:56:58.506Z,994.6
2016-09-16T03:58:08.522Z,994.57
2016-09-16T03:59:18.796Z,994.58
2016-09-16T04:00:29.077Z,994.61
2016-09-16T04:01:39.398Z,994.64
2016-09-16T04:02:49.685Z,994.67
2016-09-16T04:03:59.998Z,994.69
2016-09-16T04:05:09.989Z,994.71
2016-09-16T04:06:20.281Z,994.67
2016-09-16T04:07:30.588Z,994.71
2016-09-16T04:08:40.560Z,994.7
2016-09-16T04:09:50.851Z,994.71
2016-09-16T04:11:01.138Z,994.69
2016-09-16T04:12:11.449Z,994.7
2016-09-16T04:13:21.750Z,994.68
2016-09-16T04:14:31.422Z,994.68
2016-09-16T04:15:41.424Z,994.68
2016-09-16T04:16:51.734Z,994.67
2016-09-16T04:18:02.061Z,994.71
2016-09-16T04:19:12.374Z,994.68
2016-09-16T04:20:22.675Z,994.68
2016-09-16T04:21:32.358Z,994.68
2016-09-16T04:22:42.685Z,994.73
2016-09-16T04:23:52.990Z,994.74
2016-09-16T04:25:02.998Z,994.78
2016-09-16T04:26:13.289Z,994.82
2016-09-16T04:27:23.568Z,994.85
2016-09-16T04:28:33.551Z,994.84
2016-09-16T04:29:43.863Z,994.85
2016-09-16T04:30:54.145Z,994.88
2016-09-16T04:32:04.433Z,994.9
2016-09-16T04:33:14.429Z,994.89
2016-09-16T04:34:24.717Z,994.89
2016-09-16T04:35:35.029Z,994.88
2016-09-16T04:36:45.332Z,994.9
2016-09-16T04:37:55.321Z,994.91
2016-09-16T04:39:05.618Z,994.91
2016-09-16T04:40:15.917Z,994.94
2016-09-16T04:41:25.904Z,994.95
2016-09-16T04:42:35.883Z,994.92
2016-09-16T04:43:46.169Z,994.92
2016-09-16T04:44:56.150Z,994.95
2016-09-16T04:46:06.133Z,994.94
2016-09-16T04:47:16.426Z,994.94
2016-09-16T04:48:26.701Z,994.93
2016-09-16T04:49:36.679Z,995.02
2016-09-16T04:50:46.035Z,995.01
2016-09-16T04:51:56.026Z,995.05
2016-09-16T04:53:06.006Z,995.05
2016-09-16T04:54:16.301Z,995.12
2016-09-16T04:55:26.581Z,995.07
2016-09-16T04:56:36.880Z,995.12
2016-09-16T04:57:47.192Z,995.15
2016-09-16T04:58:57.504Z,995.1
2016-09-16T05:00:07.794Z,995.11
2016-09-16T05:01:17.780Z,995.14
2016-09-16T05:02:28.077Z,995.18
2016-09-16T05:03:38.374Z,995.16
2016-09-16T05:04:48.346Z,995.2
2016-09-16T05:05:58.639Z,995.18
2016-09-16T05:07:08.939Z,995.16
2016-09-16T05:08:18.920Z,995.22
2016-09-16T05:09:29.198Z,995.18
2016-09-16T05:10:39.514Z,995.19
2016-09-16T05:11:49.490Z,995.19
2016-09-16T05:12:59.784Z,995.19
2016-09-16T05:14:09.455Z,995.24
2016-09-16T05:15:18.816Z,995.23
2016-09-16T05:16:29.095Z,995.22
2016-09-16T05:17:39.395Z,995.22
2016-09-16T05:18:48.752Z,995.24
2016-09-16T05:19:58.753Z,995.24
2016-09-16T05:21:09.039Z,995.27
2016-09-16T05:22:19.336Z,995.34
2016-09-16T05:23:29.349Z,995.32
2016-09-16T05:24:39.325Z,995.34
2016-09-16T05:25:49.636Z,995.37
2016-09-16T05:26:59.628Z,995.35
2016-09-16T05:28:09.923Z,995.38
2016-09-16T05:29:19.946Z,995.37
2016-09-16T05:30:30.233Z,995.38
2016-09-16T05:31:39.902Z,995.35
2016-09-16T05:32:49.887Z,995.37
2016-09-16T05:33:59.867Z,995.4
2016-09-16T05:35:09.850Z,995.39
2016-09-16T05:36:19.848Z,995.4
2016-09-16T05:37:30.119Z,995.38
2016-09-16T05:38:40.095Z,995.36
2016-09-16T05:39:49.773Z,995.36
2016-09-16T05:41:00.057Z,995.35
2016-09-16T05:42:10.348Z,995.39
2016-09-16T05:43:20.633Z,995.37
2016-09-16T05:44:30.333Z,995.41
2016-09-16T05:45:39.710Z,995.41
2016-09-16T05:46:50.012Z,995.4
2016-09-16T05:48:00.311Z,995.44
2016-09-16T05:49:09.984Z,995.42
2016-09-16T05:50:19.979Z,995.46
2016-09-16T05:51:30.273Z,995.44
2016-09-16T05:52:40.265Z,995.45
2016-09-16T05:53:50.551Z,995.46
2016-09-16T05:55:00.834Z,995.47
2016-09-16T05:56:10.807Z,995.46
2016-09-16T05:57:21.122Z,995.48
2016-09-16T05:58:31.108Z,995.47
2016-09-16T05:59:41.084Z,995.45
2016-09-16T06:00:51.059Z,995.46
2016-09-16T06:02:01.045Z,995.45
2016-09-16T06:03:11.032Z,995.46
2016-09-16T06:04:21.327Z,995.48
2016-09-16T06:05:31.303Z,995.55
2016-09-16T06:06:41.580Z,995.55
2016-09-16T06:07:51.563Z,995.57
2016-09-16T06:09:01.570Z,995.56
2016-09-16T06:10:11.861Z,995.55
2016-09-16T06:11:22.163Z,995.52
2016-09-16T06:12:32.473Z,995.52
2016-09-16T06:13:42.765Z,995.52
2016-09-16T06:14:52.438Z,995.51
2016-09-16T06:16:02.409Z,995.53
2016-09-16T06:17:12.382Z,995.54
2016-09-16T06:18:22.678Z,995.59
2016-09-16T06:19:32.049Z,995.57
2016-09-16T06:20:41.759Z,995.54
2016-09-16T06:21:52.058Z,995.54
2016-09-16T06:23:02.370Z,995.51
2016-09-16T06:24:12.040Z,995.51
2016-09-16T06:25:21.715Z,995.56
2016-09-16T06:26:31.683Z,995.58
2016-09-16T06:27:41.670Z,995.54
2016-09-16T06:28:51.669Z,995.56
2016-09-16T06:30:01.343Z,995.57
2016-09-16T06:31:11.012Z,995.61
2016-09-16T06:32:21.302Z,995.55
2016-09-16T06:33:31.276Z,995.62
2016-09-16T06:34:41.003Z,995.58
2016-09-16T06:35:51.307Z,995.6
2016-09-16T06:37:01.289Z,995.59
2016-09-16T06:38:11.590Z,995.58
2016-09-16T06:39:21.587Z,995.57
2016-09-16T06:40:30.960Z,995.54
2016-09-16T06:41:41.264Z,995.51
2016-09-16T06:42:51.257Z,995.5
2016-09-16T06:44:01.554Z,995.52
2016-09-16T06:45:11.237Z,995.56
2016-09-16T06:46:21.218Z,995.62
2016-09-16T06:47:31.199Z,995.63
2016-09-16T06:48:40.570Z,995.6
2016-09-16T06:49:50.550Z,995.6
2016-09-16T06:51:00.853Z,995.61
2016-09-16T06:52:11.155Z,995.58
2016-09-16T06:53:21.442Z,995.57
2016-09-16T06:54:31.749Z,995.55
2016-09-16T06:55:41.739Z,995.54
2016-09-16T06:56:51.412Z,995.52
2016-09-16T06:58:01.733Z,995.49
2016-09-16T06:59:11.414Z,995.47
2016-09-16T07:00:21.711Z,995.48
2016-09-16T07:01:31.077Z,995.42
2016-09-16T07:02:41.394Z,995.44
2016-09-16T07:03:51.372Z,995.42
2016-09-16T07:05:01.343Z,995.42
2016-09-16T07:06:11.026Z,995.4
2016-09-16T07:07:20.715Z,995.42
2016-09-16T07:08:30.696Z,995.46
2016-09-16T07:09:41.021Z,995.43
2016-09-16T07:10:51.316Z,995.42
2016-09-16T07:12:01.284Z,995.47
2016-09-16T07:13:10.951Z,995.43
2016-09-16T07:14:21.233Z,995.41
2016-09-16T07:15:31.213Z,995.41
2016-09-16T07:16:41.515Z,995.42
2016-09-16T07:17:51.801Z,995.43
2016-09-16T07:19:01.788Z,995.44
2016-09-16T07:20:11.788Z,995.42
2016-09-16T07:21:21.773Z,995.46
2016-09-16T07:22:31.763Z,995.44
2016-09-16T07:23:42.060Z,995.44
2016-09-16T07:24:52.058Z,995.46
2016-09-16T07:26:02.052Z,995.44
2016-09-16T07:27:12.027Z,995.43
2016-09-16T07:28:21.735Z,995.44
2016-09-16T07:29:32.042Z,995.45
2016-09-16T07:30:41.713Z,995.45
2016-09-16T07:31:51.396Z,995.46
2016-09-16T07:33:01.688Z,995.45
2016-09-16T07:34:11.664Z,995.5
2016-09-16T07:35:22.032Z,995.49
2016-09-16T07:36:32.017Z,995.44
2016-09-16T07:37:41.695Z,995.45
2016-09-16T07:38:52.012Z,995.46
2016-09-16T07:40:01.991Z,995.47
2016-09-16T07:41:11.994Z,995.46
2016-09-16T07:42:22.301Z,995.47
2016-09-16T07:43:32.324Z,995.51
2016-09-16T07:44:42.316Z,995.47
2016-09-16T07:45:52.628Z,995.51
2016-09-16T07:47:02.609Z,995.46
2016-09-16T07:48:12.290Z,995.44
2016-09-16T07:49:21.968Z,995.47
2016-09-16T07:50:31.950Z,995.46
2016-09-16T07:51:41.628Z,995.45
2016-09-16T07:52:51.304Z,995.46
2016-09-16T07:54:01.615Z,995.46
2016-09-16T07:55:11.605Z,995.46
2016-09-16T07:56:20.984Z,995.5
2016-09-16T07:57:30.988Z,995.52
2016-09-16T07:58:40.983Z,995.57
2016-09-16T07:59:50.983Z,995.58
2016-09-16T08:01:00.679Z,995.55
2016-09-16T08:02:11.000Z,995.59
2016-09-16T08:03:20.682Z,995.58
2016-09-16T08:04:30.992Z,995.59
2016-09-16T08:05:40.985Z,995.56
2016-09-16T08:06:51.268Z,995.56
2016-09-16T08:08:01.598Z,995.58
2016-09-16T08:09:11.591Z,995.59
2016-09-16T08:10:21.569Z,995.6
2016-09-16T08:11:31.544Z,995.58
2016-09-16T08:12:41.536Z,995.58
2016-09-16T08:13:51.238Z,995.62
2016-09-16T08:15:00.925Z,995.64
2016-09-16T08:16:10.630Z,995.67
2016-09-16T08:17:20.934Z,995.63
2016-09-16T08:18:31.237Z,995.63
2016-09-16T08:19:41.528Z,995.69
2016-09-16T08:20:51.498Z,995.67
2016-09-16T08:22:01.789Z,995.63
2016-09-16T08:23:12.102Z,995.63
2016-09-16T08:24:22.104Z,995.62
2016-09-16T08:25:32.072Z,995.61
2016-09-16T08:26:42.058Z,995.61
2016-09-16T08:27:52.347Z,995.64
2016-09-16T08:29:02.643Z,995.64
2016-09-16T08:30:12.936Z,995.64
2016-09-16T08:31:23.255Z,995.65
2016-09-16T08:32:33.541Z,995.62
2016-09-16T08:33:43.847Z,995.65
2016-09-16T08:34:54.138Z,995.67
2016-09-16T08:36:04.438Z,995.68
2016-09-16T08:37:14.469Z,995.67
2016-09-16T08:38:24.471Z,995.68
2016-09-16T08:39:34.781Z,995.63
2016-09-16T08:40:45.072Z,995.67
2016-09-16T08:41:55.365Z,995.69
2016-09-16T08:43:05.655Z,995.64
2016-09-16T08:44:15.650Z,995.68
2016-09-16T08:45:25.633Z,995.66
2016-09-16T08:46:35.935Z,995.7
2016-09-16T08:47:46.442Z,995.7
2016-09-16T08:48:56.727Z,995.67
2016-09-16T08:50:06.720Z,995.59
2016-09-16T08:51:17.218Z,995.57
2016-09-16T08:52:27.544Z,995.55
2016-09-16T08:53:37.839Z,995.48
2016-09-16T08:54:48.129Z,995.47
2016-09-16T08:55:58.445Z,995.42
2016-09-16T08:57:08.759Z,995.41
2016-09-16T08:58:18.769Z,995.36
2016-09-16T08:59:28.755Z,995.29
2016-09-16T09:00:39.044Z,995.29
2016-09-16T09:01:49.013Z,995.28
2016-09-16T09:02:59.013Z,995.25
2016-09-16T09:04:09.325Z,995.27
2016-09-16T09:05:19.333Z,995.3
2016-09-16T09:06:29.663Z,995.26
2016-09-16T09:07:39.681Z,995.31
2016-09-16T09:08:49.695Z,995.3
2016-09-16T09:10:00.028Z,995.3
2016-09-16T09:11:09.422Z,995.35
2016-09-16T09:12:19.434Z,995.37
2016-09-16T09:13:29.420Z,995.39
2016-09-16T09:14:39.727Z,995.33
2016-09-16T09:15:49.747Z,995.37
2016-09-16T09:16:59.751Z,995.38
2016-09-16T09:18:10.085Z,995.34
2016-09-16T09:19:19.783Z,995.33
2016-09-16T09:20:30.107Z,995.31
2016-09-16T09:21:39.513Z,995.33
2016-09-16T09:22:49.540Z,995.34
2016-09-16T09:23:59.856Z,995.36
2016-09-16T09:25:09.560Z,995.31
2016-09-16T09:26:19.562Z,995.29
2016-09-16T09:27:30.063Z,995.26
2016-09-16T09:28:39.759Z,995.27
2016-09-16T09:29:49.454Z,995.25
2016-09-16T09:30:59.303Z,995.24
2016-09-16T09:32:12.597Z,995.21
2016-09-16T09:33:26.479Z,995.17
2016-09-16T09:34:36.781Z,995.16
2016-09-16T09:35:47.112Z,995.13
2016-09-16T09:36:57.131Z,995.06
2016-09-16T09:38:07.469Z,994.99
2016-09-16T09:39:17.789Z,994.95
2016-09-16T09:40:27.781Z,994.91
2016-09-16T09:41:38.103Z,994.82
2016-09-16T09:42:48.441Z,994.77
2016-09-16T09:43:58.738Z,994.87
2016-09-16T09:45:09.065Z,994.84
2016-09-16T09:46:18.456Z,994.86
2016-09-16T09:47:28.733Z,994.92
2016-09-16T09:48:38.762Z,994.95
2016-09-16T09:49:48.825Z,994.99
2016-09-16T09:50:59.453Z,995.05
2016-09-16T09:52:09.189Z,995.07
2016-09-16T09:53:18.902Z,995.02
2016-09-16T09:54:29.222Z,995.03
2016-09-16T09:55:39.573Z,995.05
2016-09-16T09:56:49.654Z,995.03
2016-09-16T09:57:59.683Z,994.94
2016-09-16T09:59:09.986Z,994.91
2016-09-16T10:00:20.007Z,994.95
2016-09-16T10:01:29.993Z,994.91
2016-09-16T10:02:40.289Z,994.92
2016-09-16T10:03:50.276Z,994.92
2016-09-16T10:05:00.270Z,994.9
2016-09-16T10:06:10.271Z,994.98
2016-09-16T10:07:20.595Z,994.97
2016-09-16T10:08:30.600Z,994.94
2016-09-16T10:09:40.912Z,994.96
2016-09-16T10:10:50.902Z,994.95
2016-09-16T10:12:00.894Z,994.89
2016-09-16T10:13:10.871Z,994.91
2016-09-16T10:14:20.869Z,994.96
2016-09-16T10:15:30.540Z,994.94
2016-09-16T10:16:40.531Z,994.98
2016-09-16T10:17:50.212Z,994.95
2016-09-16T10:18:59.891Z,994.96
2016-09-16T10:20:09.905Z,994.94
2016-09-16T10:21:19.902Z,994.96
2016-09-16T10:22:30.188Z,994.92
2016-09-16T10:23:40.485Z,994.93
2016-09-16T10:24:50.492Z,994.89
2016-09-16T10:26:00.493Z,994.91
2016-09-16T10:27:10.482Z,994.94
2016-09-16T10:28:20.464Z,994.97
2016-09-16T10:29:30.161Z,994.98
2016-09-16T10:30:40.154Z,994.99
2016-09-16T10:31:50.463Z,995.08
2016-09-16T10:33:00.145Z,995.07
2016-09-16T10:34:10.443Z,995.18
2016-09-16T10:35:20.750Z,995.21
2016-09-16T10:36:31.034Z,995.18
2016-09-16T10:37:40.723Z,995.21
2016-09-16T10:38:51.034Z,995.21
2016-09-16T10:40:01.020Z,995.18
2016-09-16T10:41:10.998Z,995.16
2016-09-16T10:42:21.297Z,995.15
2016-09-16T10:43:31.599Z,995.14
2016-09-16T10:44:41.605Z,995.11
2016-09-16T10:45:51.598Z,995.1
2016-09-16T10:47:01.578Z,995.17
2016-09-16T10:48:11.572Z,995.12
2016-09-16T10:49:21.873Z,995.15
2016-09-16T10:50:31.259Z,995.18
2016-09-16T10:51:41.589Z,995.16
2016-09-16T10:52:51.281Z,995.14
2016-09-16T10:54:01.586Z,995.08
2016-09-16T10:55:11.573Z,995.07
2016-09-16T10:56:21.573Z,995.07
2016-09-16T10:57:31.256Z,995.04
2016-09-16T10:58:41.243Z,995.04
2016-09-16T10:59:51.244Z,994.99
2016-09-16T11:01:00.924Z,994.92
2016-09-16T11:02:11.232Z,994.93
2016-09-16T11:03:20.935Z,994.92
2016-09-16T11:04:30.939Z,994.93
2016-09-16T11:05:41.255Z,994.93
2016-09-16T11:06:50.953Z,994.91
2016-09-16T11:08:01.266Z,994.9
2016-09-16T11:09:11.563Z,994.92
2016-09-16T11:10:21.870Z,994.91
2016-09-16T11:11:32.185Z,994.86
2016-09-16T11:12:41.868Z,994.83
2016-09-16T11:13:51.564Z,994.8
2016-09-16T11:15:01.878Z,994.82
2016-09-16T11:16:11.857Z,994.81
2016-09-16T11:17:21.862Z,994.81
2016-09-16T11:18:31.548Z,994.8
2016-09-16T11:19:41.547Z,994.77
2016-09-16T11:20:51.860Z,994.8
2016-09-16T11:22:01.552Z,994.81
2016-09-16T11:23:11.594Z,994.82
2016-09-16T11:24:21.575Z,994.83
2016-09-16T11:25:31.556Z,994.78
2016-09-16T11:26:41.244Z,994.77
2016-09-16T11:27:50.931Z,994.75
2016-09-16T11:29:01.234Z,994.67
2016-09-16T11:30:11.529Z,994.64
2016-09-16T11:31:21.208Z,994.57
2016-09-16T11:32:30.880Z,994.55
2016-09-16T11:33:41.171Z,994.59
2016-09-16T11:34:51.467Z,994.62
2016-09-16T11:36:01.147Z,994.62
2016-09-16T11:37:11.141Z,994.64
2016-09-16T11:38:21.236Z,994.61
2016-09-16T11:39:31.518Z,994.58
2016-09-16T11:40:41.586Z,994.59
2016-09-16T11:41:51.873Z,994.54
2016-09-16T11:43:02.166Z,994.51
2016-09-16T11:44:12.512Z,994.47
2016-09-16T11:45:22.199Z,994.51
2016-09-16T11:46:32.483Z,994.49
2016-09-16T11:47:42.475Z,994.52
2016-09-16T11:48:52.779Z,994.48
2016-09-16T11:50:03.086Z,994.48
2016-09-16T11:51:13.650Z,994.44
2016-09-16T11:52:23.328Z,994.41
2016-09-16T11:53:33.019Z,994.42
2016-09-16T11:54:42.707Z,994.37
2016-09-16T11:55:53.023Z,994.29
2016-09-16T11:57:03.014Z,994.26
2016-09-16T11:58:13.021Z,994.25
2016-09-16T11:59:23.331Z,994.25
2016-09-16T12:00:33.637Z,994.24
2016-09-16T12:01:43.877Z,994.2
2016-09-16T12:02:54.202Z,994.21
2016-09-16T12:04:03.886Z,994.16
2016-09-16T12:05:14.204Z,994.13
2016-09-16T12:06:24.516Z,994.14
2016-09-16T12:07:34.800Z,994.18
2016-09-16T12:08:44.946Z,994.18
2016-09-16T12:09:54.934Z,994.24
2016-09-16T12:11:04.612Z,994.25
2016-09-16T12:12:14.616Z,994.23
2016-09-16T12:13:24.949Z,994.23
2016-09-16T12:14:34.936Z,994.21
2016-09-16T12:15:44.956Z,994.23
2016-09-16T12:16:55.250Z,994.18
2016-09-16T12:18:05.556Z,994.23
2016-09-16T12:19:14.951Z,994.26
2016-09-16T12:20:25.289Z,994.2
2016-09-16T12:21:34.991Z,994.2
2016-09-16T12:22:44.999Z,994.19
2016-09-16T12:23:55.306Z,994.25
2016-09-16T12:25:05.592Z,994.23
2016-09-16T12:26:15.593Z,994.27
2016-09-16T12:27:25.596Z,994.27
2016-09-16T12:28:35.288Z,994.25
2016-09-16T12:29:45.650Z,994.24
2016-09-16T12:30:57.338Z,994.22
2016-09-16T12:32:07.340Z,994.22
2016-09-16T12:33:17.647Z,994.13
2016-09-16T12:34:27.639Z,994.14
2016-09-16T12:35:37.954Z,994.15
2016-09-16T12:36:47.624Z,994.15
2016-09-16T12:37:57.646Z,994.12
2016-09-16T12:39:07.946Z,994.05
2016-09-16T12:40:17.948Z,994.08
2016-09-16T12:41:27.889Z,994.07
2016-09-16T12:42:38.185Z,994.06
2016-09-16T12:43:47.581Z,994.1
2016-09-16T12:44:57.295Z,994.18
2016-09-16T12:46:07.592Z,994.12
2016-09-16T12:47:17.890Z,994.09
2016-09-16T12:48:27.571Z,994.07
2016-09-16T12:49:37.572Z,994
2016-09-16T12:50:47.573Z,994.01
2016-09-16T12:51:57.566Z,994.04
2016-09-16T12:53:07.870Z,993.96
2016-09-16T12:54:18.189Z,993.96
2016-09-16T12:55:27.870Z,993.94
2016-09-16T12:56:37.563Z,993.96
2016-09-16T12:57:47.233Z,993.94
2016-09-16T12:58:57.540Z,993.99
2016-09-16T13:00:07.541Z,993.96
2016-09-16T13:01:17.247Z,993.93
2016-09-16T13:02:26.950Z,993.92
2016-09-16T13:03:36.942Z,993.91
2016-09-16T13:04:46.948Z,993.89
2016-09-16T13:05:56.948Z,993.88
2016-09-16T13:07:07.249Z,993.91
2016-09-16T13:08:17.563Z,993.9
2016-09-16T13:09:27.847Z,993.87
2016-09-16T13:10:37.542Z,993.81
2016-09-16T13:11:47.525Z,993.78
2016-09-16T13:12:57.846Z,993.76
2016-09-16T13:14:07.829Z,993.77
2016-09-16T13:15:17.509Z,993.75
2016-09-16T13:16:27.516Z,993.76
2016-09-16T13:17:37.820Z,993.74
2016-09-16T13:18:48.139Z,993.73
2016-09-16T13:19:58.441Z,993.7
2016-09-16T13:21:07.829Z,993.69
2016-09-16T13:22:18.140Z,993.65
2016-09-16T13:23:28.132Z,993.69
2016-09-16T13:24:38.123Z,993.65
2016-09-16T13:25:48.135Z,993.68
2016-09-16T13:26:58.436Z,993.58
2016-09-16T13:28:08.734Z,993.61
2016-09-16T13:29:18.117Z,993.61
2016-09-16T13:30:28.428Z,993.63
2016-09-16T13:31:38.108Z,993.62
2016-09-16T13:32:48.420Z,993.63
2016-09-16T13:33:58.106Z,993.58
2016-09-16T13:35:08.414Z,993.59
2016-09-16T13:36:18.401Z,993.58
2016-09-16T13:37:28.703Z,993.63
2016-09-16T13:38:38.703Z,993.62
2016-09-16T13:39:49.012Z,993.59
2016-09-16T13:40:59.328Z,993.59
2016-09-16T13:42:09.008Z,993.58
2016-09-16T13:43:18.681Z,993.57
2016-09-16T13:44:28.685Z,993.57
2016-09-16T13:45:38.667Z,993.53
2016-09-16T13:46:48.971Z,993.53
2016-09-16T13:47:58.961Z,993.51
2016-09-16T13:49:09.259Z,993.52
2016-09-16T13:50:18.956Z,993.51
2016-09-16T13:51:28.641Z,993.53
2016-09-16T13:52:38.638Z,993.5
2016-09-16T13:53:48.644Z,993.54
2016-09-16T13:54:58.013Z,993.48
2016-09-16T13:56:08.311Z,993.46
2016-09-16T13:57:18.297Z,993.47
2016-09-16T13:58:27.973Z,993.47
2016-09-16T13:59:37.957Z,993.39
2016-09-16T14:00:48.260Z,993.4
2016-09-16T14:01:58.249Z,993.42
2016-09-16T14:03:08.543Z,993.44
2016-09-16T14:04:18.854Z,993.45
2016-09-16T14:05:28.539Z,993.44
2016-09-16T14:06:38.550Z,993.44
2016-09-16T14:07:48.852Z,993.42
2016-09-16T14:08:58.852Z,993.41
2016-09-16T14:10:09.153Z,993.4
2016-09-16T14:11:18.530Z,993.36
2016-09-16T14:12:28.518Z,993.33
2016-09-16T14:13:38.818Z,993.29
2016-09-16T14:14:49.126Z,993.24
2016-09-16T14:15:59.103Z,993.26
2016-09-16T14:17:08.501Z,993.25
2016-09-16T14:18:18.188Z,993.21
2016-09-16T14:19:28.489Z,993.24
2016-09-16T14:20:38.213Z,993.26
2016-09-16T14:21:48.520Z,993.26
2016-09-16T14:22:58.508Z,993.24
2016-09-16T14:24:08.498Z,993.26
2016-09-16T14:25:17.870Z,993.28
2016-09-16T14:26:28.168Z,993.28
2016-09-16T14:27:37.875Z,993.25
2016-09-16T14:28:47.860Z,993.23
2016-09-16T14:29:58.176Z,993.2
2016-09-16T14:31:08.186Z,993.16
2016-09-16T14:32:17.886Z,993.17
2016-09-16T14:33:28.188Z,993.17
2016-09-16T14:34:38.493Z,993.09
2016-09-16T14:35:48.473Z,993.17
2016-09-16T14:36:58.768Z,993.13
2016-09-16T14:38:09.074Z,993.11
2016-09-16T14:39:19.374Z,993.14
2016-09-16T14:40:29.648Z,993.13
2016-09-16T14:41:39.635Z,993.14
2016-09-16T14:42:49.659Z,993.16
2016-09-16T14:43:59.963Z,993.17
2016-09-16T14:45:09.960Z,993.13
2016-09-16T14:46:19.955Z,993.18
2016-09-16T14:47:29.942Z,993.19
2016-09-16T14:48:39.930Z,993.16
2016-09-16T14:49:50.226Z,993.18
2016-09-16T14:51:00.522Z,993.14
2016-09-16T14:52:10.529Z,993.1
2016-09-16T14:53:20.539Z,993.13
2016-09-16T14:54:30.525Z,993.12
2016-09-16T14:55:40.845Z,993.07
2016-09-16T14:56:50.837Z,993.13
2016-09-16T14:58:00.828Z,993.16
2016-09-16T14:59:10.816Z,993.17
2016-09-16T15:00:20.816Z,993.13
2016-09-16T15:01:31.112Z,993.11
2016-09-16T15:02:40.799Z,993.1
2016-09-16T15:03:51.107Z,993.1
2016-09-16T15:05:01.113Z,993.12
2016-09-16T15:06:10.815Z,993.07
2016-09-16T15:07:20.503Z,993.09